TAM9540 SBKP-SGAS
Flight info
| Callsign | TAM9540 |
|---|---|
| Flight time | 1h 31m |
| Altitude | 34000 |
| Route | ASETA UL301 DEVOS DEVOS |
| Aircraft | A320/M-SDE3FGHIRWY/LB1 |
Departure
| Time | 2026-04-21 02:03 |
|---|---|
| Airport | Viracopos International Airport (SBKP) |
Arrival
| Time | 2026-04-21 03:35 |
|---|---|
| Airport | Silvio Pettirossi International Airport (SGAS) |
| Time | Latitude | Longitude | Altitude | Speed | Heading |
|---|---|---|---|---|---|
| 2026-04-21 01:39 | -23.00352 | -47.14927 | 2157 ft | 0 kts | 222° |
| 2026-04-21 01:57 | -23.00343 | -47.14917 | 2150 ft | 4 kts | 228° |
| 2026-04-21 01:57 | -23.00329 | -47.14894 | 2152 ft | 4 kts | 262° |
| 2026-04-21 01:58 | -23.00332 | -47.14874 | 2151 ft | 0 kts | 308° |
| 2026-04-21 02:00 | -23.00327 | -47.14882 | 2152 ft | 4 kts | 306° |
| 2026-04-21 02:00 | -23.00309 | -47.14910 | 2156 ft | 8 kts | 302° |
| 2026-04-21 02:00 | -23.00249 | -47.14985 | 2153 ft | 14 kts | 309° |
| 2026-04-21 02:00 | -23.00180 | -47.15003 | 2155 ft | 11 kts | 31° |
| 2026-04-21 02:01 | -23.00126 | -47.14957 | 2149 ft | 9 kts | 39° |
| 2026-04-21 02:01 | -23.00075 | -47.14915 | 2152 ft | 10 kts | 37° |
| 2026-04-21 02:01 | -23.00021 | -47.14869 | 2153 ft | 10 kts | 39° |
| 2026-04-21 02:01 | -22.99970 | -47.14810 | 2157 ft | 11 kts | 46° |
| 2026-04-21 02:02 | -22.99916 | -47.14753 | 2153 ft | 9 kts | 50° |
| 2026-04-21 02:02 | -22.99887 | -47.14687 | 2150 ft | 11 kts | 78° |
| 2026-04-21 02:02 | -22.99971 | -47.14520 | 2153 ft | 59 kts | 127° |
| 2026-04-21 02:02 | -23.00396 | -47.13929 | 2150 ft | 136 kts | 128° |
| 2026-04-21 02:03 | -23.01068 | -47.13006 | 2575 ft | 162 kts | 127° |
| 2026-04-21 02:03 | -23.01763 | -47.12003 | 3349 ft | 170 kts | 125° |
| 2026-04-21 02:03 | -23.02500 | -47.10963 | 3806 ft | 182 kts | 135° |
| 2026-04-21 02:03 | -23.03721 | -47.10429 | 4042 ft | 209 kts | 179° |
| 2026-04-21 02:04 | -23.05197 | -47.10873 | 4375 ft | 233 kts | 199° |
| 2026-04-21 02:04 | -23.06757 | -47.11592 | 4742 ft | 257 kts | 200° |
| 2026-04-21 02:04 | -23.08455 | -47.12368 | 5416 ft | 268 kts | 200° |
| 2026-04-21 02:04 | -23.10030 | -47.13483 | 6259 ft | 278 kts | 227° |
| 2026-04-21 02:05 | -23.10865 | -47.15389 | 7032 ft | 287 kts | 259° |
| 2026-04-21 02:05 | -23.11034 | -47.17564 | 7854 ft | 291 kts | 265° |
| 2026-04-21 02:05 | -23.11100 | -47.19773 | 8661 ft | 294 kts | 267° |
| 2026-04-21 02:05 | -23.11130 | -47.22009 | 9468 ft | 298 kts | 267° |
| 2026-04-21 02:06 | -23.11158 | -47.24283 | 10200 ft | 305 kts | 267° |
| 2026-04-21 02:06 | -23.11199 | -47.26673 | 10432 ft | 328 kts | 266° |
| 2026-04-21 02:06 | -23.11252 | -47.29237 | 10635 ft | 351 kts | 266° |
| 2026-04-21 02:06 | -23.11315 | -47.31940 | 11085 ft | 362 kts | 266° |
| 2026-04-21 02:07 | -23.11380 | -47.34694 | 11716 ft | 367 kts | 266° |
| 2026-04-21 02:07 | -23.11446 | -47.37474 | 12374 ft | 370 kts | 266° |
| 2026-04-21 02:07 | -23.11516 | -47.40290 | 13004 ft | 375 kts | 266° |
| 2026-04-21 02:07 | -23.11587 | -47.43098 | 13626 ft | 379 kts | 266° |
| 2026-04-21 02:08 | -23.11663 | -47.46011 | 14222 ft | 383 kts | 266° |
| 2026-04-21 02:08 | -23.11737 | -47.48879 | 14802 ft | 385 kts | 267° |
| 2026-04-21 02:08 | -23.11808 | -47.51795 | 15395 ft | 388 kts | 267° |
| 2026-04-21 02:08 | -23.11877 | -47.54732 | 15986 ft | 390 kts | 267° |
| 2026-04-21 02:09 | -23.11942 | -47.57682 | 16571 ft | 392 kts | 267° |
| 2026-04-21 02:09 | -23.12009 | -47.60649 | 17151 ft | 394 kts | 268° |
| 2026-04-21 02:09 | -23.12079 | -47.63625 | 17729 ft | 396 kts | 268° |
| 2026-04-21 02:09 | -23.12148 | -47.66631 | 18304 ft | 398 kts | 268° |
| 2026-04-21 02:10 | -23.12216 | -47.69642 | 18788 ft | 400 kts | 268° |
| 2026-04-21 02:10 | -23.12286 | -47.72668 | 19279 ft | 402 kts | 268° |
| 2026-04-21 02:10 | -23.12354 | -47.75708 | 19767 ft | 403 kts | 268° |
| 2026-04-21 02:10 | -23.12420 | -47.78757 | 20256 ft | 405 kts | 268° |
| 2026-04-21 02:11 | -23.12560 | -47.81814 | 20733 ft | 406 kts | 262° |
| 2026-04-21 02:11 | -23.13169 | -47.84812 | 21210 ft | 407 kts | 251° |
| 2026-04-21 02:11 | -23.14288 | -47.87635 | 21675 ft | 409 kts | 241° |
| 2026-04-21 02:11 | -23.15857 | -47.90220 | 22127 ft | 411 kts | 234° |
| 2026-04-21 02:12 | -23.17533 | -47.92750 | 22603 ft | 413 kts | 234° |
| 2026-04-21 02:12 | -23.19208 | -47.95285 | 23071 ft | 414 kts | 235° |
| 2026-04-21 02:12 | -23.20892 | -47.97839 | 23516 ft | 416 kts | 235° |
| 2026-04-21 02:12 | -23.22580 | -48.00409 | 23913 ft | 418 kts | 235° |
| 2026-04-21 02:13 | -23.24275 | -48.02995 | 24266 ft | 420 kts | 235° |
| 2026-04-21 02:13 | -23.25976 | -48.05592 | 24618 ft | 423 kts | 235° |
| 2026-04-21 02:13 | -23.27537 | -48.08308 | 24950 ft | 425 kts | 243° |
| 2026-04-21 02:13 | -23.28655 | -48.11291 | 25256 ft | 427 kts | 253° |
| 2026-04-21 02:14 | -23.29294 | -48.14452 | 25561 ft | 430 kts | 261° |
| 2026-04-21 02:14 | -23.29762 | -48.17674 | 25868 ft | 432 kts | 261° |
| 2026-04-21 02:14 | -23.30236 | -48.20910 | 26175 ft | 435 kts | 260° |
| 2026-04-21 02:14 | -23.30714 | -48.24175 | 26493 ft | 437 kts | 261° |
| 2026-04-21 02:15 | -23.31193 | -48.27450 | 26809 ft | 440 kts | 260° |
| 2026-04-21 02:15 | -23.31676 | -48.30741 | 27118 ft | 442 kts | 260° |
| 2026-04-21 02:15 | -23.32160 | -48.34052 | 27422 ft | 444 kts | 260° |
| 2026-04-21 02:15 | -23.32647 | -48.37383 | 27716 ft | 447 kts | 260° |
| 2026-04-21 02:16 | -23.33146 | -48.40722 | 28007 ft | 449 kts | 258° |
| 2026-04-21 02:16 | -23.33951 | -48.44010 | 28277 ft | 451 kts | 253° |
| 2026-04-21 02:16 | -23.34869 | -48.47283 | 28562 ft | 453 kts | 252° |
| 2026-04-21 02:16 | -23.35788 | -48.50564 | 28831 ft | 455 kts | 253° |
| 2026-04-21 02:17 | -23.36708 | -48.53863 | 29086 ft | 457 kts | 253° |
| 2026-04-21 02:17 | -23.37631 | -48.57184 | 29346 ft | 459 kts | 253° |
| 2026-04-21 02:17 | -23.38556 | -48.60518 | 29598 ft | 461 kts | 253° |
| 2026-04-21 02:17 | -23.39476 | -48.63831 | 29850 ft | 463 kts | 253° |
| 2026-04-21 02:18 | -23.40420 | -48.67239 | 30133 ft | 465 kts | 253° |
| 2026-04-21 02:18 | -23.41339 | -48.70554 | 30460 ft | 463 kts | 253° |
| 2026-04-21 02:18 | -23.42270 | -48.73914 | 30801 ft | 462 kts | 253° |
| 2026-04-21 02:18 | -23.43196 | -48.77255 | 31133 ft | 460 kts | 253° |
| 2026-04-21 02:19 | -23.44118 | -48.80589 | 31477 ft | 459 kts | 253° |
| 2026-04-21 02:19 | -23.45036 | -48.83916 | 31838 ft | 457 kts | 253° |
| 2026-04-21 02:19 | -23.45947 | -48.87224 | 32193 ft | 455 kts | 252° |
| 2026-04-21 02:19 | -23.46853 | -48.90523 | 32553 ft | 454 kts | 252° |
| 2026-04-21 02:20 | -23.47759 | -48.93816 | 32909 ft | 452 kts | 252° |
| 2026-04-21 02:20 | -23.48659 | -48.97090 | 33265 ft | 451 kts | 252° |
| 2026-04-21 02:20 | -23.49560 | -49.00351 | 33632 ft | 449 kts | 252° |
| 2026-04-21 02:20 | -23.50460 | -49.03604 | 33989 ft | 448 kts | 252° |
| 2026-04-21 02:21 | -23.51353 | -49.06853 | 34094 ft | 447 kts | 252° |
| 2026-04-21 02:21 | -23.53123 | -49.13340 | 34114 ft | 446 kts | 252° |
| 2026-04-21 02:22 | -23.54894 | -49.19811 | 34116 ft | 445 kts | 252° |
| 2026-04-21 02:22 | -23.56662 | -49.26270 | 34114 ft | 445 kts | 252° |
| 2026-04-21 02:23 | -23.58438 | -49.32778 | 34112 ft | 453 kts | 252° |
| 2026-04-21 02:23 | -23.60232 | -49.39382 | 34111 ft | 460 kts | 252° |
| 2026-04-21 02:24 | -23.62050 | -49.46081 | 34107 ft | 461 kts | 252° |
| 2026-04-21 02:24 | -23.63868 | -49.52791 | 34109 ft | 461 kts | 253° |
| 2026-04-21 02:25 | -23.65674 | -49.59504 | 34111 ft | 461 kts | 253° |
| 2026-04-21 02:25 | -23.67474 | -49.66205 | 34112 ft | 461 kts | 253° |
| 2026-04-21 02:26 | -23.69281 | -49.72920 | 34111 ft | 461 kts | 253° |
| 2026-04-21 02:26 | -23.71089 | -49.79638 | 34111 ft | 461 kts | 253° |
| 2026-04-21 02:27 | -23.72888 | -49.86358 | 34110 ft | 461 kts | 253° |
| 2026-04-21 02:27 | -23.74666 | -49.93034 | 34103 ft | 461 kts | 253° |
| 2026-04-21 02:28 | -23.76449 | -49.99751 | 34113 ft | 461 kts | 253° |
| 2026-04-21 02:28 | -23.78236 | -50.06481 | 34117 ft | 461 kts | 253° |
| 2026-04-21 02:29 | -23.80017 | -50.13203 | 34117 ft | 461 kts | 253° |
| 2026-04-21 02:29 | -23.81799 | -50.19931 | 34117 ft | 461 kts | 253° |
| 2026-04-21 02:30 | -23.83580 | -50.26656 | 34121 ft | 461 kts | 253° |
| 2026-04-21 02:30 | -23.85353 | -50.33390 | 34121 ft | 460 kts | 253° |
| 2026-04-21 02:31 | -23.87108 | -50.40067 | 34120 ft | 460 kts | 253° |
| 2026-04-21 02:31 | -23.88874 | -50.46790 | 34118 ft | 460 kts | 253° |
| 2026-04-21 02:32 | -23.90635 | -50.53515 | 34111 ft | 460 kts | 253° |
| 2026-04-21 02:32 | -23.92396 | -50.60235 | 34113 ft | 460 kts | 253° |
| 2026-04-21 02:33 | -23.93852 | -50.65824 | 34114 ft | 460 kts | 253° |
| 2026-04-21 02:33 | -23.95890 | -50.73684 | 34113 ft | 459 kts | 253° |
| 2026-04-21 02:34 | -23.97335 | -50.79270 | 34111 ft | 459 kts | 253° |
| 2026-04-21 02:34 | -23.99074 | -50.85995 | 34111 ft | 460 kts | 253° |
| 2026-04-21 02:35 | -24.00811 | -50.92721 | 34119 ft | 459 kts | 254° |
| 2026-04-21 02:35 | -24.02540 | -50.99434 | 34117 ft | 458 kts | 254° |
| 2026-04-21 02:36 | -24.04262 | -51.06136 | 34116 ft | 457 kts | 254° |
| 2026-04-21 02:36 | -24.05979 | -51.12841 | 34111 ft | 457 kts | 254° |
| 2026-04-21 02:37 | -24.07697 | -51.19536 | 34105 ft | 456 kts | 254° |
| 2026-04-21 02:37 | -24.09408 | -51.26224 | 34089 ft | 456 kts | 253° |
| 2026-04-21 02:38 | -24.11110 | -51.32915 | 34078 ft | 457 kts | 254° |
| 2026-04-21 02:38 | -24.12807 | -51.39612 | 34079 ft | 457 kts | 254° |
| 2026-04-21 02:39 | -24.14500 | -51.46313 | 34076 ft | 456 kts | 254° |
| 2026-04-21 02:39 | -24.16199 | -51.53013 | 34076 ft | 456 kts | 254° |
| 2026-04-21 02:40 | -24.17891 | -51.59710 | 34075 ft | 456 kts | 254° |
| 2026-04-21 02:40 | -24.19577 | -51.66404 | 34073 ft | 456 kts | 254° |
| 2026-04-21 02:41 | -24.21256 | -51.73097 | 34075 ft | 455 kts | 254° |
| 2026-04-21 02:41 | -24.22921 | -51.79752 | 34072 ft | 456 kts | 254° |
| 2026-04-21 02:42 | -24.24598 | -51.86450 | 34065 ft | 456 kts | 254° |
| 2026-04-21 02:42 | -24.26276 | -51.93161 | 34058 ft | 457 kts | 255° |
| 2026-04-21 02:43 | -24.27948 | -51.99872 | 34059 ft | 457 kts | 255° |
| 2026-04-21 02:43 | -24.29622 | -52.06591 | 34059 ft | 457 kts | 255° |
| 2026-04-21 02:44 | -24.31286 | -52.13319 | 34057 ft | 457 kts | 255° |
| 2026-04-21 02:44 | -24.32944 | -52.20054 | 34057 ft | 457 kts | 255° |
| 2026-04-21 02:45 | -24.34606 | -52.26794 | 34057 ft | 458 kts | 255° |
| 2026-04-21 02:45 | -24.36265 | -52.33535 | 34059 ft | 458 kts | 255° |
| 2026-04-21 02:46 | -24.37922 | -52.40285 | 34058 ft | 458 kts | 255° |
| 2026-04-21 02:46 | -24.39577 | -52.47025 | 34064 ft | 458 kts | 255° |
| 2026-04-21 02:47 | -24.41233 | -52.53773 | 34070 ft | 458 kts | 255° |
| 2026-04-21 02:47 | -24.42868 | -52.60488 | 34063 ft | 458 kts | 255° |
| 2026-04-21 02:48 | -24.44507 | -52.67242 | 34067 ft | 458 kts | 255° |
| 2026-04-21 02:48 | -24.46138 | -52.74008 | 34068 ft | 459 kts | 256° |
| 2026-04-21 02:49 | -24.47676 | -52.80804 | 34063 ft | 459 kts | 256° |
| 2026-04-21 02:49 | -24.49155 | -52.87616 | 34060 ft | 459 kts | 256° |
| 2026-04-21 02:50 | -24.50643 | -52.94432 | 34060 ft | 459 kts | 256° |
| 2026-04-21 02:50 | -24.52151 | -53.01234 | 34053 ft | 458 kts | 256° |
| 2026-04-21 02:51 | -24.53659 | -53.08026 | 34057 ft | 458 kts | 256° |
| 2026-04-21 02:51 | -24.55164 | -53.14816 | 34057 ft | 457 kts | 256° |
| 2026-04-21 02:52 | -24.56661 | -53.21584 | 34058 ft | 456 kts | 256° |
| 2026-04-21 02:52 | -24.58144 | -53.28363 | 34055 ft | 455 kts | 257° |
| 2026-04-21 02:53 | -24.59609 | -53.35102 | 34061 ft | 453 kts | 257° |
| 2026-04-21 02:53 | -24.61081 | -53.41826 | 34060 ft | 451 kts | 257° |
| 2026-04-21 02:54 | -24.62548 | -53.48539 | 34057 ft | 450 kts | 257° |
| 2026-04-21 02:54 | -24.64009 | -53.55225 | 34051 ft | 450 kts | 257° |
| 2026-04-21 02:55 | -24.65468 | -53.61904 | 34046 ft | 449 kts | 257° |
| 2026-04-21 02:55 | -24.66913 | -53.68568 | 34044 ft | 449 kts | 257° |
| 2026-04-21 02:56 | -24.68353 | -53.75243 | 34045 ft | 448 kts | 257° |
| 2026-04-21 02:56 | -24.70503 | -53.85217 | 34048 ft | 446 kts | 257° |
| 2026-04-21 02:57 | -24.71925 | -53.91840 | 34046 ft | 444 kts | 257° |
| 2026-04-21 02:57 | -24.73343 | -53.98456 | 34032 ft | 444 kts | 257° |
| 2026-04-21 02:58 | -24.74751 | -54.05061 | 34032 ft | 443 kts | 257° |
| 2026-04-21 02:58 | -24.76143 | -54.11603 | 34031 ft | 441 kts | 257° |
| 2026-04-21 02:59 | -24.77546 | -54.18184 | 34018 ft | 441 kts | 257° |
| 2026-04-21 02:59 | -24.78947 | -54.24755 | 34015 ft | 440 kts | 257° |
| 2026-04-21 03:00 | -24.80340 | -54.31304 | 34022 ft | 439 kts | 257° |
| 2026-04-21 03:00 | -24.81723 | -54.37832 | 34018 ft | 437 kts | 257° |
| 2026-04-21 03:01 | -24.83100 | -54.44363 | 34011 ft | 437 kts | 257° |
| 2026-04-21 03:01 | -24.84474 | -54.50866 | 34002 ft | 436 kts | 257° |
| 2026-04-21 03:02 | -24.85845 | -54.57368 | 34007 ft | 435 kts | 257° |
| 2026-04-21 03:02 | -24.87213 | -54.63849 | 34004 ft | 434 kts | 257° |
| 2026-04-21 03:03 | -24.88582 | -54.70308 | 34000 ft | 433 kts | 257° |
| 2026-04-21 03:03 | -24.89933 | -54.76735 | 33999 ft | 433 kts | 257° |
| 2026-04-21 03:04 | -24.91280 | -54.83210 | 33987 ft | 433 kts | 257° |
| 2026-04-21 03:04 | -24.92633 | -54.89680 | 33983 ft | 433 kts | 257° |
| 2026-04-21 03:05 | -24.93863 | -54.96178 | 33987 ft | 434 kts | 260° |
| 2026-04-21 03:05 | -24.94699 | -55.02771 | 33987 ft | 434 kts | 262° |
| 2026-04-21 03:06 | -24.95426 | -55.09369 | 33991 ft | 430 kts | 262° |
| 2026-04-21 03:06 | -24.96197 | -55.15776 | 33987 ft | 417 kts | 261° |
| 2026-04-21 03:07 | -24.97008 | -55.22064 | 33167 ft | 414 kts | 261° |
| 2026-04-21 03:07 | -24.97417 | -55.25172 | 32289 ft | 416 kts | 261° |
| 2026-04-21 03:07 | -24.97829 | -55.28341 | 31407 ft | 419 kts | 262° |
| 2026-04-21 03:08 | -24.98235 | -55.31538 | 30501 ft | 423 kts | 262° |
| 2026-04-21 03:08 | -24.98642 | -55.34775 | 29510 ft | 426 kts | 262° |
| 2026-04-21 03:08 | -24.99045 | -55.38003 | 28765 ft | 423 kts | 262° |
| 2026-04-21 03:08 | -24.99441 | -55.41199 | 28041 ft | 419 kts | 262° |
| 2026-04-21 03:09 | -24.99832 | -55.44373 | 27366 ft | 416 kts | 262° |
| 2026-04-21 03:09 | -25.00222 | -55.47517 | 26700 ft | 413 kts | 262° |
| 2026-04-21 03:09 | -25.00615 | -55.50639 | 26055 ft | 410 kts | 262° |
| 2026-04-21 03:09 | -25.01002 | -55.53737 | 25425 ft | 407 kts | 262° |
| 2026-04-21 03:10 | -25.01383 | -55.56811 | 24809 ft | 404 kts | 262° |
| 2026-04-21 03:10 | -25.01758 | -55.59872 | 24196 ft | 401 kts | 262° |
| 2026-04-21 03:10 | -25.02132 | -55.62902 | 23603 ft | 398 kts | 262° |
| 2026-04-21 03:10 | -25.02508 | -55.65933 | 22923 ft | 396 kts | 262° |
| 2026-04-21 03:11 | -25.02881 | -55.68929 | 22275 ft | 393 kts | 262° |
| 2026-04-21 03:11 | -25.03246 | -55.71865 | 21668 ft | 390 kts | 262° |
| 2026-04-21 03:11 | -25.03610 | -55.74812 | 21073 ft | 387 kts | 262° |
| 2026-04-21 03:11 | -25.03967 | -55.77745 | 20498 ft | 384 kts | 262° |
| 2026-04-21 03:12 | -25.04321 | -55.80651 | 19952 ft | 381 kts | 263° |
| 2026-04-21 03:12 | -25.04673 | -55.83539 | 19388 ft | 379 kts | 262° |
| 2026-04-21 03:12 | -25.05026 | -55.86420 | 19032 ft | 379 kts | 262° |
| 2026-04-21 03:12 | -25.05378 | -55.89282 | 18562 ft | 375 kts | 262° |
| 2026-04-21 03:13 | -25.05728 | -55.92127 | 18017 ft | 373 kts | 262° |
| 2026-04-21 03:13 | -25.06075 | -55.94962 | 17442 ft | 371 kts | 263° |
| 2026-04-21 03:13 | -25.06417 | -55.97771 | 16884 ft | 369 kts | 263° |
| 2026-04-21 03:13 | -25.06760 | -56.00577 | 16334 ft | 367 kts | 263° |
| 2026-04-21 03:14 | -25.07097 | -56.03357 | 15809 ft | 366 kts | 264° |
| 2026-04-21 03:14 | -25.07431 | -56.06133 | 15295 ft | 364 kts | 264° |
| 2026-04-21 03:14 | -25.07765 | -56.08897 | 14799 ft | 362 kts | 264° |
| 2026-04-21 03:14 | -25.08098 | -56.11646 | 14304 ft | 361 kts | 265° |
| 2026-04-21 03:15 | -25.08430 | -56.14389 | 13820 ft | 359 kts | 265° |
| 2026-04-21 03:15 | -25.08757 | -56.17115 | 13281 ft | 357 kts | 265° |
| 2026-04-21 03:15 | -25.09082 | -56.19828 | 12748 ft | 355 kts | 265° |
| 2026-04-21 03:15 | -25.09406 | -56.22519 | 12249 ft | 352 kts | 265° |
| 2026-04-21 03:16 | -25.09724 | -56.25153 | 12054 ft | 340 kts | 265° |
| 2026-04-21 03:16 | -25.10031 | -56.27680 | 12051 ft | 323 kts | 266° |
| 2026-04-21 03:16 | -25.10320 | -56.30071 | 12061 ft | 307 kts | 266° |
| 2026-04-21 03:16 | -25.10591 | -56.32346 | 12051 ft | 299 kts | 266° |
| 2026-04-21 03:17 | -25.10772 | -56.33878 | 12055 ft | 298 kts | 266° |
| 2026-04-21 03:17 | -25.11039 | -56.36139 | 12050 ft | 295 kts | 266° |
| 2026-04-21 03:17 | -25.11301 | -56.38350 | 12049 ft | 287 kts | 266° |
| 2026-04-21 03:17 | -25.11639 | -56.41233 | 12049 ft | 285 kts | 266° |
| 2026-04-21 03:18 | -25.11893 | -56.43406 | 12052 ft | 285 kts | 266° |
| 2026-04-21 03:18 | -25.12064 | -56.44848 | 12044 ft | 285 kts | 266° |
| 2026-04-21 03:18 | -25.12323 | -56.47045 | 12044 ft | 285 kts | 266° |
| 2026-04-21 03:18 | -25.12575 | -56.49188 | 12044 ft | 285 kts | 266° |
| 2026-04-21 03:19 | -25.12828 | -56.51359 | 12058 ft | 285 kts | 266° |
| 2026-04-21 03:19 | -25.13086 | -56.53557 | 12039 ft | 285 kts | 266° |
| 2026-04-21 03:19 | -25.13337 | -56.55702 | 12039 ft | 285 kts | 266° |
| 2026-04-21 03:19 | -25.13591 | -56.57878 | 12040 ft | 285 kts | 265° |
| 2026-04-21 03:20 | -25.13835 | -56.60048 | 12044 ft | 284 kts | 268° |
| 2026-04-21 03:20 | -25.13866 | -56.62222 | 12044 ft | 282 kts | 276° |
| 2026-04-21 03:20 | -25.13716 | -56.64383 | 12041 ft | 282 kts | 277° |
| 2026-04-21 03:20 | -25.13565 | -56.66535 | 12042 ft | 282 kts | 277° |
| 2026-04-21 03:21 | -25.13416 | -56.68691 | 12040 ft | 282 kts | 277° |
| 2026-04-21 03:21 | -25.13267 | -56.70849 | 12042 ft | 282 kts | 277° |
| 2026-04-21 03:21 | -25.13115 | -56.73029 | 12041 ft | 288 kts | 277° |
| 2026-04-21 03:21 | -25.12961 | -56.75221 | 12039 ft | 292 kts | 277° |
| 2026-04-21 03:22 | -25.12805 | -56.77457 | 12040 ft | 292 kts | 277° |
| 2026-04-21 03:22 | -25.12652 | -56.79699 | 12041 ft | 293 kts | 277° |
| 2026-04-21 03:22 | -25.12496 | -56.81935 | 12047 ft | 293 kts | 277° |
| 2026-04-21 03:22 | -25.12340 | -56.84174 | 12039 ft | 290 kts | 277° |
| 2026-04-21 03:23 | -25.12190 | -56.86344 | 12033 ft | 280 kts | 277° |
| 2026-04-21 03:23 | -25.12042 | -56.88479 | 11865 ft | 278 kts | 277° |
| 2026-04-21 03:23 | -25.11894 | -56.90591 | 11623 ft | 275 kts | 277° |
| 2026-04-21 03:23 | -25.11747 | -56.92692 | 11382 ft | 274 kts | 277° |
| 2026-04-21 03:24 | -25.11600 | -56.94783 | 11146 ft | 273 kts | 277° |
| 2026-04-21 03:24 | -25.11454 | -56.96864 | 10909 ft | 271 kts | 278° |
| 2026-04-21 03:24 | -25.11307 | -56.98934 | 10675 ft | 271 kts | 278° |
| 2026-04-21 03:24 | -25.11159 | -57.01001 | 10441 ft | 270 kts | 278° |
| 2026-04-21 03:25 | -25.11011 | -57.03062 | 10210 ft | 269 kts | 278° |
| 2026-04-21 03:25 | -25.10858 | -57.05165 | 9985 ft | 281 kts | 278° |
| 2026-04-21 03:25 | -25.10702 | -57.07326 | 9871 ft | 284 kts | 278° |
| 2026-04-21 03:25 | -25.10549 | -57.09502 | 9749 ft | 284 kts | 278° |
| 2026-04-21 03:26 | -25.10397 | -57.11676 | 9625 ft | 284 kts | 278° |
| 2026-04-21 03:26 | -25.10243 | -57.13847 | 9497 ft | 283 kts | 278° |
| 2026-04-21 03:26 | -25.10087 | -57.16009 | 9346 ft | 283 kts | 278° |
| 2026-04-21 03:26 | -25.09929 | -57.18189 | 8795 ft | 284 kts | 278° |
| 2026-04-21 03:27 | -25.09775 | -57.20337 | 8198 ft | 279 kts | 278° |
| 2026-04-21 03:27 | -25.09622 | -57.22459 | 7623 ft | 276 kts | 278° |
| 2026-04-21 03:27 | -25.09467 | -57.24561 | 7054 ft | 274 kts | 279° |
| 2026-04-21 03:27 | -25.09319 | -57.26609 | 6721 ft | 260 kts | 279° |
| 2026-04-21 03:28 | -25.09181 | -57.28560 | 6290 ft | 252 kts | 279° |
| 2026-04-21 03:28 | -25.09046 | -57.30444 | 5748 ft | 248 kts | 280° |
| 2026-04-21 03:28 | -25.08909 | -57.32335 | 5220 ft | 246 kts | 280° |
| 2026-04-21 03:28 | -25.08771 | -57.34207 | 4696 ft | 244 kts | 280° |
| 2026-04-21 03:29 | -25.08510 | -57.36020 | 4330 ft | 233 kts | 288° |
| 2026-04-21 03:29 | -25.08170 | -57.37700 | 4228 ft | 218 kts | 288° |
| 2026-04-21 03:29 | -25.07852 | -57.39303 | 4129 ft | 210 kts | 289° |
| 2026-04-21 03:29 | -25.07545 | -57.40848 | 4052 ft | 201 kts | 289° |
| 2026-04-21 03:30 | -25.07258 | -57.42306 | 3935 ft | 188 kts | 290° |
| 2026-04-21 03:30 | -25.06990 | -57.43666 | 3812 ft | 176 kts | 291° |
| 2026-04-21 03:30 | -25.06731 | -57.44957 | 3688 ft | 169 kts | 293° |
| 2026-04-21 03:30 | -25.06701 | -57.46263 | 3465 ft | 179 kts | 264° |
| 2026-04-21 03:31 | -25.07327 | -57.47488 | 3211 ft | 193 kts | 228° |
| 2026-04-21 03:31 | -25.08531 | -57.48176 | 2959 ft | 200 kts | 195° |
| 2026-04-21 03:31 | -25.09876 | -57.48499 | 2700 ft | 195 kts | 192° |
| 2026-04-21 03:31 | -25.11187 | -57.48809 | 2445 ft | 190 kts | 191° |
| 2026-04-21 03:32 | -25.12465 | -57.49116 | 2214 ft | 186 kts | 193° |
| 2026-04-21 03:32 | -25.13712 | -57.49418 | 1997 ft | 179 kts | 191° |
| 2026-04-21 03:32 | -25.14911 | -57.49709 | 1757 ft | 174 kts | 190° |
| 2026-04-21 03:32 | -25.16079 | -57.49993 | 1531 ft | 170 kts | 192° |
| 2026-04-21 03:33 | -25.17197 | -57.50264 | 1324 ft | 162 kts | 191° |
| 2026-04-21 03:33 | -25.18281 | -57.50527 | 1123 ft | 157 kts | 191° |
| 2026-04-21 03:33 | -25.19330 | -57.50782 | 930 ft | 151 kts | 191° |
| 2026-04-21 03:33 | -25.20321 | -57.51020 | 733 ft | 145 kts | 190° |
| 2026-04-21 03:34 | -25.21301 | -57.51263 | 485 ft | 140 kts | 192° |
| 2026-04-21 03:34 | -25.22245 | -57.51487 | 358 ft | 138 kts | 191° |
| 2026-04-21 03:34 | -25.23171 | -57.51706 | 304 ft | 130 kts | 191° |
| 2026-04-21 03:34 | -25.23852 | -57.51877 | 302 ft | 58 kts | 192° |
| 2026-04-21 03:35 | -25.24078 | -57.51934 | 303 ft | 28 kts | 191° |
| 2026-04-21 03:35 | -25.24246 | -57.51953 | 305 ft | 15 kts | 144° |
| 2026-04-21 03:35 | -25.24277 | -57.51852 | 302 ft | 15 kts | 102° |
| 2026-04-21 03:35 | -25.24301 | -57.51739 | 299 ft | 14 kts | 104° |
| 2026-04-21 03:36 | -25.24287 | -57.51655 | 302 ft | 8 kts | 40° |
| 2026-04-21 03:36 | -25.24237 | -57.51637 | 300 ft | 7 kts | 17° |
| 2026-04-21 03:36 | -25.24210 | -57.51620 | 299 ft | 1 kts | 83° |
| 2026-04-21 03:36 | -25.24214 | -57.51613 | 302 ft | 2 kts | 116° |
| 2026-04-21 03:37 | -25.24226 | -57.51579 | 300 ft | 5 kts | 104° |
| 2026-04-21 03:37 | -25.24233 | -57.51548 | 302 ft | 0 kts | 103° |